Time;durP1;ratioP1;P1;durP2;ratioP2;P2;SDS_P1;SDS_P2;PMS_P1;PMS_P2;Temp;Humidity;BMP_temperature;BMP_pressure;BME280_temperature;BME280_humidity;BME280_pressure;Samples;Min_cycle;Max_cycle;Signal;HPM_P1;HPM_P2
2021/07/22 13:38:39;;;;;;;;;;;;;;;33.73;34.72;100837.41;146842;65;72428;-64
2021/07/22 13:43:26;;;;;;;;;;;;;;;34.50;33.60;100829.75;146577;955;196063;-66
2021/07/22 13:49:29;;;;;;;;;40.00;34.00;;;;;35.42;31.11;100827.56;146261;176;73439;-65
2021/07/22 13:52:21;;;;;;;;;46.00;36.33;;;;;35.21;31.96;100832.50;146533;575;69992;-65
2021/07/22 13:55:15;;;;;;;;;40.33;34.33;;;;;35.12;31.42;100821.41;146618;628;46010;-66
2021/07/22 13:58:07;;;;;;;;;42.67;34.33;;;;;35.40;31.95;100827.09;146613;589;46012;-65
2021/07/22 14:00:59;;;;;;;;;33.00;29.67;;;;;35.65;28.85;100815.78;146616;575;46020;-66
2021/07/22 14:03:52;;;;;;;;;29.67;26.67;;;;;35.44;29.61;100824.38;146613;569;47012;-66
2021/07/22 14:08:09;;;;;;;;;30.00;28.67;;;;;36.28;28.75;100815.56;146718;575;45023;-66
2021/07/22 14:11:01;;;;;;;;;24.33;24.33;;;;;36.20;28.69;100825.78;146613;603;47012;-65
2021/07/22 14:17:02;;;;;;;;;29.00;25.75;;;;;36.02;29.19;100811.19;146696;577;46023;-64
2021/07/22 14:21:53;;;;;;;;;27.60;26.00;;;;;35.32;30.63;100808.38;146701;572;46012;-64
2021/07/22 14:24:46;;;;;;;;;24.20;22.20;;;;;35.47;30.32;100818.06;146449;598;73063;-65
2021/07/22 14:27:38;;;;;;;;;31.00;28.20;;;;;35.55;30.43;100816.31;146539;565;71328;-64
2021/07/22 14:30:30;;;;;;;;;22.40;19.80;;;;;35.55;30.72;100807.88;146616;648;47012;-64
2021/07/22 14:33:23;;;;;;;;;22.00;21.80;;;;;35.52;30.50;100808.53;146622;600;46008;-64
2021/07/22 14:36:15;;;;;;;;;21.20;21.20;;;;;35.82;29.80;100808.22;146618;600;46016;-65
2021/07/22 14:39:07;;;;;;;;;19.00;18.80;;;;;36.04;29.50;100812.50;146618;628;46008;-64
2021/07/22 14:42:00;;;;;;;;;18.60;18.60;;;;;36.17;29.15;100807.63;146537;630;70466;-64
2021/07/22 14:44:53;;;;;;;;;18.60;18.00;;;;;36.04;29.44;100806.06;146619;645;46021;-64
2021/07/22 14:47:45;;;;;;;;;23.20;21.40;;;;;36.05;29.49;100807.69;146620;610;45584;-64
2021/07/22 14:50:37;;;;;;;;;23.40;23.40;;;;;36.23;29.20;100808.19;146621;571;46021;-63
2021/07/22 14:53:31;;;;;;;;;21.20;18.20;;;;;36.17;29.21;100804.81;146618;594;46016;-63
2021/07/22 14:56:23;;;;;;;;;19.80;19.40;;;;;36.19;29.51;100805.25;146621;586;46011;-63
2021/07/22 14:59:15;;;;;;;;;34.60;31.40;;;;;36.13;29.36;100809.53;146618;587;46016;-61
2021/07/22 15:02:08;;;;;;;;;51.60;43.80;;;;;36.19;29.45;100804.44;146619;620;46010;-64
2021/07/22 15:05:00;;;;;;;;;49.40;40.20;;;;;36.48;29.02;100810.81;146619;564;46014;-64
2021/07/22 15:07:52;;;;;;;;;56.20;45.00;;;;;36.02;30.00;100806.37;146619;600;46020;-64
2021/07/22 15:11:17;;;;;;;;;56.00;45.75;;;;;35.86;30.04;100800.72;146532;564;58028;-65
2021/07/22 15:14:10;;;;;;;;;56.20;44.20;;;;;36.02;30.27;100797.94;146613;574;47012;-64
2021/07/22 15:17:01;;;;;;;;;52.00;42.40;;;;;39.50;25.87;100798.59;146372;161;118549;-64
2021/07/22 15:19:56;;;;;;;;;51.50;40.50;;;;;39.89;24.58;100797.47;146208;564;120774;-67
2021/07/22 15:22:49;;;;;;;;;51.40;41.60;;;;;38.81;26.20;100803.22;144012;65;73364;-68
2021/07/22 15:29:11;;;;;;;;;18.25;17.00;;;;;30.47;38.04;100776.37;144444;564;131023;-68
2021/07/22 15:32:03;;;;;;;;;12.25;12.25;;;;;31.71;41.40;100767.75;144243;563;131021;-83
2021/07/22 15:34:56;;;;;;;;;16.25;16.25;;;;;30.77;37.58;100775.78;144033;66;132011;-68
2021/07/22 15:37:48;;;;;;;;;17.25;16.50;;;;;31.92;34.88;100760.81;144241;579;131016;-66
2021/07/22 15:40:41;;;;;;;;;15.25;15.00;;;;;33.43;33.44;100766.16;144022;630;131020;-67
2021/07/22 15:43:33;;;;;;;;;13.50;13.50;;;;;33.53;33.46;100769.41;144241;613;131017;-68
2021/07/22 15:46:26;;;;;;;;;16.75;15.75;;;;;33.67;32.67;100762.25;144157;65;291422;-67
2021/07/22 15:49:18;;;;;;;;;20.00;17.75;;;;;34.61;30.58;100763.03;144243;564;131017;-67
2021/07/22 15:52:11;;;;;;;;;14.50;13.50;;;;;35.32;28.72;100764.66;144267;589;132012;-68
2021/07/22 15:55:03;;;;;;;;;17.75;17.75;;;;;35.72;27.56;100759.31;144233;591;132010;-69
2021/07/22 15:57:55;;;;;;;;;17.00;16.25;;;;;34.81;29.24;100774.91;144268;586;131021;-68
2021/07/22 16:00:47;;;;;;;;;16.25;16.25;;;;;35.29;28.69;100762.31;144231;645;132010;-67
2021/07/22 16:03:39;;;;;;;;;19.00;17.00;;;;;34.84;30.10;100770.94;144266;635;132008;-69
2021/07/22 16:06:32;;;;;;;;;16.50;16.50;;;;;34.85;28.79;100768.00;144235;596;131911;-68
2021/07/22 16:09:24;;;;;;;;;12.00;12.00;;;;;34.34;29.94;100766.44;144266;615;132012;-68
2021/07/22 16:12:17;;;;;;;;;18.50;17.25;;;;;35.25;28.42;100765.47;144231;631;132010;-67
2021/07/22 16:15:10;;;;;;;;;22.00;17.00;;;;;35.52;27.97;100773.75;144264;581;131020;-68
2021/07/22 16:18:04;;;;;;;;;17.00;14.75;;;;;34.83;28.27;100761.94;144231;571;132010;-70
2021/07/22 16:20:56;;;;;;;;;15.25;14.25;;;;;35.35;28.43;100772.44;144267;592;131020;-67
2021/07/22 16:23:49;;;;;;;;;14.25;14.25;;;;;34.77;29.77;100776.31;144237;620;131016;-68
2021/07/22 16:26:41;;;;;;;;;17.00;16.00;;;;;33.97;30.15;100773.00;144263;577;132008;-67
2021/07/22 16:29:33;;;;;;;;;16.00;14.25;;;;;34.05;31.09;100778.31;144071;618;131020;-67
2021/07/22 16:32:25;;;;;;;;;12.75;11.00;;;;;34.59;28.80;100776.84;144265;656;131023;-67
2021/07/22 16:35:19;;;;;;;;;17.00;15.75;;;;;33.41;31.25;100777.25;144237;565;131016;-67
2021/07/22 16:38:11;;;;;;;;;16.25;15.00;;;;;34.67;29.18;100784.06;144268;619;132008;-70
2021/07/22 16:41:03;;;;;;;;;14.75;13.25;;;;;33.80;29.91;100783.34;144161;630;132020;-69
2021/07/22 16:43:56;;;;;;;;;12.25;11.25;;;;;35.13;28.28;100783.47;144269;599;132010;-67
2021/07/22 16:46:48;;;;;;;;;12.75;12.75;;;;;35.10;28.90;100793.94;144227;622;132013;-67
2021/07/22 16:49:40;;;;;;;;;12.75;12.75;;;;;35.43;28.29;100788.63;144268;566;132010;-67
2021/07/22 16:52:34;;;;;;;;;12.75;12.75;;;;;34.60;29.75;100796.78;144233;578;132012;-68
2021/07/22 16:55:26;;;;;;;;;13.50;12.50;;;;;34.16;30.22;100796.00;144272;609;132010;-68
2021/07/22 16:58:18;;;;;;;;;12.25;11.75;;;;;35.56;28.15;100785.94;144229;628;132012;-68
2021/07/22 17:01:12;;;;;;;;;10.75;10.75;;;;;34.37;29.67;100803.34;144263;629;132014;-67
2021/07/22 17:04:04;;;;;;;;;14.00;11.50;;;;;34.05;30.40;100802.81;144239;570;132013;-66
2021/07/22 17:06:57;;;;;;;;;12.50;10.25;;;;;34.57;29.54;100809.78;144263;620;132014;-68
2021/07/22 17:09:49;;;;;;;;;10.75;10.75;;;;;33.74;30.75;100807.53;144231;601;132015;-67
2021/07/22 17:12:44;;;;;;;;;10.50;9.75;;;;;32.84;32.53;100806.00;144265;598;131021;-68
2021/07/22 17:15:38;;;;;;;;;11.50;9.75;;;;;32.94;32.18;100811.13;144253;711;132012;-67
2021/07/22 17:18:30;;;;;;;;;15.25;13.00;;;;;32.91;32.43;100817.78;144208;635;132011;-68
2021/07/22 17:21:23;;;;;;;;;13.50;13.50;;;;;32.17;34.02;100810.37;144237;569;131016;-68
2021/07/22 17:24:15;;;;;;;;;14.50;13.50;;;;;32.48;33.57;100812.09;144269;670;131021;-67
2021/07/22 17:27:07;;;;;;;;;5.25;3.50;;;;;31.75;34.94;100807.06;144238;636;132010;-68
2021/07/22 17:30:00;;;;;;;;;15.00;14.50;;;;;32.20;34.21;100804.56;144285;580;132008;-67
2021/07/22 17:32:52;;;;;;;;;13.75;13.75;;;;;32.25;33.78;100791.28;144230;602;131999;-68
2021/07/22 17:35:44;;;;;;;;;14.50;13.00;;;;;32.47;33.48;100811.25;144261;675;132008;-68
2021/07/22 17:38:37;;;;;;;;;14.50;13.25;;;;;32.28;34.47;100806.37;144225;606;132013;-68
2021/07/22 17:41:29;;;;;;;;;12.50;11.50;;;;;32.17;34.22;100816.63;144257;603;132008;-68
2021/07/22 17:44:22;;;;;;;;;11.25;10.75;;;;;32.12;34.17;100821.72;144236;609;131859;-68
2021/07/22 17:47:14;;;;;;;;;16.50;14.00;;;;;32.13;34.14;100823.41;144264;627;132012;-67
2021/07/22 17:50:07;;;;;;;;;15.00;12.50;;;;;31.97;34.18;100829.81;144237;579;132010;-66
2021/07/22 17:53:00;;;;;;;;;15.00;13.25;;;;;32.51;33.72;100828.88;144261;726;132008;-67
2021/07/22 17:55:52;;;;;;;;;14.25;12.75;;;;;32.32;34.18;100823.97;144233;590;132010;-68
2021/07/22 17:58:45;;;;;;;;;13.00;13.00;;;;;32.70;33.53;100832.12;144264;623;132008;-68
2021/07/22 18:01:38;;;;;;;;;13.00;11.00;;;;;33.28;32.49;100836.94;144233;583;132010;-68
2021/07/22 18:04:30;;;;;;;;;14.25;12.75;;;;;33.57;32.13;100844.19;144267;576;131020;-68
2021/07/22 18:07:23;;;;;;;;;15.00;13.75;;;;;34.00;31.37;100833.37;144236;609;132010;-68
2021/07/22 18:10:16;;;;;;;;;12.25;12.00;;;;;34.17;30.95;100844.81;144265;566;131021;-67
2021/07/22 18:13:09;;;;;;;;;15.25;14.00;;;;;34.58;30.64;100843.31;144237;565;132030;-67
2021/07/22 18:16:01;;;;;;;;;15.25;14.00;;;;;34.86;30.05;100847.94;144265;619;132013;-68
2021/07/22 18:18:54;;;;;;;;;15.50;13.75;;;;;35.11;29.61;100847.47;144232;571;132010;-69
2021/07/22 18:21:47;;;;;;;;;15.75;15.25;;;;;35.11;29.71;100848.28;144267;620;131020;-68
2021/07/22 18:24:40;;;;;;;;;18.25;16.25;;;;;35.38;28.88;100857.47;144234;577;132011;-67
2021/07/22 18:27:32;;;;;;;;;17.25;16.25;;;;;35.30;28.84;100854.88;144263;715;132008;-68
2021/07/22 18:30:24;;;;;;;;;12.50;10.25;;;;;35.24;28.60;100853.81;144234;628;132010;-67
2021/07/22 18:33:24;;;;;;;;;14.50;14.50;;;;;35.18;28.99;100854.59;144268;605;132008;-68
2021/07/22 18:36:42;;;;;;;;;13.00;13.00;;;;;35.18;29.12;100861.97;144235;565;131912;-69
2021/07/22 18:39:35;;;;;;;;;13.25;12.75;;;;;35.26;28.88;100853.59;144267;566;131021;-68
2021/07/22 18:42:28;;;;;;;;;16.25;15.25;;;;;35.10;29.14;100871.16;144238;640;132010;-68
2021/07/22 18:45:20;;;;;;;;;19.75;18.00;;;;;35.40;28.51;100871.75;144263;573;132008;-67
2021/07/22 18:48:12;;;;;;;;;18.00;15.25;;;;;35.49;27.64;100877.87;144234;574;131017;-67
2021/07/22 18:51:05;;;;;;;;;15.75;14.75;;;;;35.33;27.90;100887.25;144265;571;131020;-68
2021/07/22 18:53:57;;;;;;;;;16.50;16.50;;;;;35.14;28.15;100888.78;144232;698;132011;-66
2021/07/22 18:56:49;;;;;;;;;17.75;13.75;;;;;35.01;28.00;100891.47;144266;585;131020;-66
2021/07/22 18:59:42;;;;;;;;;16.25;15.75;;;;;34.89;28.45;100899.34;144238;649;131912;-67
2021/07/22 19:02:37;;;;;;;;;17.75;17.00;;;;;34.78;28.75;100894.44;144263;580;132008;-67
2021/07/22 19:05:30;;;;;;;;;15.00;15.00;;;;;34.73;28.30;100908.63;144238;599;132010;-66
2021/07/22 19:08:22;;;;;;;;;16.50;16.00;;;;;35.00;27.40;100904.25;144268;581;132008;-66
2021/07/22 19:11:14;;;;;;;;;14.00;14.00;;;;;34.62;28.38;100906.47;144236;570;132010;-67
2021/07/22 19:14:07;;;;;;;;;32.50;30.75;;;;;34.97;27.81;100901.09;144265;563;131020;-67
2021/07/22 19:17:00;;;;;;;;;34.50;28.75;;;;;34.59;27.90;100907.69;144231;596;132010;-66
2021/07/22 19:19:52;;;;;;;;;23.25;20.00;;;;;34.54;27.35;100908.28;144263;673;132012;-66
2021/07/22 19:22:48;;;;;;;;;18.75;17.75;;;;;34.32;27.34;100920.25;144236;625;131913;-66
2021/07/22 19:25:40;;;;;;;;;17.50;16.50;;;;;34.21;28.13;100922.41;144268;596;132008;-66
2021/07/22 19:28:32;;;;;;;;;11.50;11.50;;;;;34.07;28.00;100926.03;144234;569;131912;-67
2021/07/22 19:31:24;;;;;;;;;13.75;13.75;;;;;33.97;28.20;100920.91;144262;676;132008;-66
2021/07/22 19:34:17;;;;;;;;;14.25;14.25;;;;;33.77;28.53;100917.94;144230;618;132010;-66
2021/07/22 19:37:09;;;;;;;;;17.25;17.25;;;;;33.45;29.05;100924.63;144263;690;132008;-66
2021/07/22 19:40:01;;;;;;;;;14.75;13.25;;;;;33.43;29.35;100929.41;144238;609;131017;-66
2021/07/22 19:42:53;;;;;;;;;17.00;15.50;;;;;33.50;29.33;100925.75;144265;616;132008;-66
2021/07/22 19:45:45;;;;;;;;;18.50;16.25;;;;;33.61;29.53;100924.41;144233;569;132011;-66
2021/07/22 19:48:37;;;;;;;;;22.75;19.50;;;;;33.46;29.68;100924.44;144261;631;132012;-66
2021/07/22 19:51:29;;;;;;;;;14.00;13.25;;;;;33.45;29.81;100933.66;144235;565;131912;-66
2021/07/22 19:54:22;;;;;;;;;17.75;15.00;;;;;33.78;29.61;100914.19;144263;614;132008;-66
2021/07/22 19:57:14;;;;;;;;;16.50;14.50;;;;;33.71;29.32;100921.41;144235;625;132010;-66
2021/07/22 20:00:08;;;;;;;;;17.50;15.25;;;;;33.38;30.41;100921.81;144262;565;132013;-66
2021/07/22 20:03:00;;;;;;;;;16.00;16.00;;;;;34.15;29.09;100920.47;144238;694;132009;-67
2021/07/22 20:05:53;;;;;;;;;15.00;14.25;;;;;34.25;28.38;100929.16;144262;635;131036;-66
2021/07/22 20:08:45;;;;;;;;;17.25;16.75;;;;;34.11;27.92;100921.87;144230;627;132012;-66
2021/07/22 20:11:38;;;;;;;;;18.75;15.25;;;;;33.90;28.17;100930.88;144261;611;132008;-66
2021/07/22 20:14:30;;;;;;;;;20.00;19.25;;;;;33.79;28.33;100920.47;144235;603;131913;-67
2021/07/22 20:17:22;;;;;;;;;18.75;17.50;;;;;33.81;28.53;100924.69;144253;566;132008;-66
2021/07/22 20:20:15;;;;;;;;;16.50;14.50;;;;;34.18;27.89;100922.78;144227;573;132010;-66
2021/07/22 20:23:07;;;;;;;;;14.75;12.75;;;;;34.20;27.46;100920.72;144254;584;131021;-66
2021/07/22 20:26:00;;;;;;;;;22.00;18.50;;;;;33.99;27.98;100918.81;144225;581;132010;-66
2021/07/22 20:28:52;;;;;;;;;17.00;16.25;;;;;34.15;27.41;100928.63;144245;564;132008;-66
2021/07/22 20:31:46;;;;;;;;;21.75;16.75;;;;;34.12;27.61;100925.44;144213;580;133913;-66
2021/07/22 20:34:39;;;;;;;;;12.25;12.00;;;;;34.19;27.23;100932.66;144258;602;131020;-66
2021/07/22 20:37:32;;;;;;;;;16.50;16.50;;;;;34.10;27.61;100922.09;144225;600;131913;-66
2021/07/22 20:40:24;;;;;;;;;15.25;15.00;;;;;34.33;27.15;100927.38;144255;587;131020;-67
2021/07/22 20:43:16;;;;;;;;;18.75;14.25;;;;;34.15;26.84;100939.53;144220;598;132010;-67
2021/07/22 20:46:09;;;;;;;;;14.00;14.00;;;;;34.10;27.46;100925.66;144250;583;132008;-66
2021/07/22 20:49:02;;;;;;;;;14.75;13.00;;;;;34.20;27.47;100934.34;144225;612;132000;-66
2021/07/22 20:51:54;;;;;;;;;12.25;12.25;;;;;34.33;27.36;100932.84;144254;597;132008;-67
2021/07/22 20:54:47;;;;;;;;;16.75;16.25;;;;;34.06;28.09;100932.50;144228;586;131016;-66
2021/07/22 20:57:39;;;;;;;;;14.75;14.75;;;;;34.38;27.30;100924.91;144249;659;131020;-66
2021/07/22 21:00:31;;;;;;;;;20.25;16.00;;;;;34.40;27.02;100933.72;144223;585;131017;-66
2021/07/22 21:03:24;;;;;;;;;18.50;15.75;;;;;34.14;27.60;100940.56;144250;564;132008;-66
2021/07/22 21:06:16;;;;;;;;;17.00;17.00;;;;;34.57;26.92;100940.59;144229;592;131017;-66
2021/07/22 21:09:09;;;;;;;;;15.25;14.75;;;;;34.71;26.66;100944.28;144250;632;132012;-66
2021/07/22 21:12:02;;;;;;;;;16.50;16.00;;;;;34.65;25.84;100949.66;144228;632;131016;-67
2021/07/22 21:14:55;;;;;;;;;20.25;18.00;;;;;34.45;25.61;100949.47;144248;603;132008;-66
2021/07/22 21:17:47;;;;;;;;;20.25;18.50;;;;;34.37;25.80;100948.59;144226;694;132010;-66
2021/07/22 21:20:41;;;;;;;;;20.50;18.00;;;;;33.88;26.79;100950.13;144255;621;131021;-66
2021/07/22 21:23:33;;;;;;;;;21.00;17.50;;;;;33.63;26.84;100951.44;144227;610;131017;-66
2021/07/22 21:26:26;;;;;;;;;20.75;19.00;;;;;33.62;27.21;100957.94;144250;651;131020;-66
2021/07/22 21:29:18;;;;;;;;;16.25;14.25;;;;;33.62;26.79;100955.22;144223;587;131032;-64
2021/07/22 21:32:11;;;;;;;;;16.75;16.75;;;;;33.48;26.87;100944.16;144247;637;132008;-66
2021/07/22 21:35:03;;;;;;;;;18.50;18.50;;;;;33.44;27.08;100947.44;144218;588;132013;-66
2021/07/22 21:37:55;;;;;;;;;20.25;16.50;;;;;33.01;27.67;100953.47;144255;616;131021;-66
2021/07/22 21:40:47;;;;;;;;;18.75;18.25;;;;;32.97;28.35;100952.16;144222;563;132010;-67
2021/07/22 21:43:40;;;;;;;;;17.00;17.00;;;;;33.19;27.67;100953.97;144249;649;132009;-69
2021/07/22 21:46:32;;;;;;;;;16.00;16.00;;;;;33.23;27.48;100949.84;144223;584;132009;-68
2021/07/22 21:49:24;;;;;;;;;19.50;19.50;;;;;33.31;27.55;100950.81;144252;645;132008;-68
2021/07/22 21:52:17;;;;;;;;;15.25;15.25;;;;;33.36;27.48;100940.22;144216;573;132010;-68
2021/07/22 21:55:10;;;;;;;;;21.50;19.00;;;;;33.39;27.29;100953.44;144242;647;132012;-69
2021/07/22 21:58:02;;;;;;;;;14.00;14.00;;;;;33.45;27.09;100949.09;144218;610;134912;-65
2021/07/22 22:00:54;;;;;;;;;14.75;14.00;;;;;33.40;26.93;100952.41;144252;571;131021;-65
2021/07/22 22:03:46;;;;;;;;;19.00;15.25;;;;;33.40;26.54;100947.78;144223;584;131016;-67
2021/07/22 22:06:39;;;;;;;;;17.25;17.25;;;;;33.15;26.83;100944.50;144256;625;131021;-67
2021/07/22 22:09:31;;;;;;;;;10.75;10.75;;;;;33.35;26.37;100943.97;144222;609;132012;-67
2021/07/22 22:12:23;;;;;;;;;18.00;17.25;;;;;33.32;26.24;100945.16;144254;604;131037;-67
2021/07/22 22:15:16;;;;;;;;;13.50;13.50;;;;;32.83;27.92;100942.94;144226;593;131016;-67
2021/07/22 22:18:08;;;;;;;;;12.75;12.50;;;;;33.14;27.39;100942.78;144249;571;132008;-68
2021/07/22 22:21:01;;;;;;;;;15.25;14.00;;;;;33.54;26.45;100948.81;144220;637;132010;-67
2021/07/22 22:23:53;;;;;;;;;13.50;12.75;;;;;33.55;25.35;100947.78;144245;577;131020;-66
2021/07/22 22:26:45;;;;;;;;;13.25;13.25;;;;;33.38;25.36;100933.56;144218;575;132016;-68
2021/07/22 22:29:39;;;;;;;;;14.25;14.25;;;;;33.47;26.01;100931.56;144250;604;132008;-66
2021/07/22 22:32:32;;;;;;;;;16.00;13.50;;;;;33.73;25.15;100952.00;144221;621;132010;-68
2021/07/22 22:35:24;;;;;;;;;18.50;16.50;;;;;33.65;25.22;100949.37;144251;632;132013;-68
2021/07/22 22:38:16;;;;;;;;;15.00;15.00;;;;;33.60;25.21;100952.69;144223;611;132010;-68
2021/07/22 22:41:08;;;;;;;;;15.50;13.25;;;;;33.52;25.86;100945.47;144250;585;132008;-68
2021/07/22 22:44:01;;;;;;;;;13.25;11.75;;;;;33.80;24.86;100952.94;144232;733;132019;-67
2021/07/22 22:46:53;;;;;;;;;12.25;12.25;;;;;33.89;24.92;100945.53;144252;564;131998;-67
2021/07/22 22:49:45;;;;;;;;;13.00;13.00;;;;;33.74;24.89;100946.38;144219;618;132011;-66
2021/07/22 22:52:37;;;;;;;;;14.25;12.50;;;;;33.55;25.47;100944.25;144239;622;132008;-68
2021/07/22 22:55:29;;;;;;;;;14.00;11.75;;;;;33.48;25.45;100944.16;144223;563;131016;-68
2021/07/22 22:58:22;;;;;;;;;12.00;12.00;;;;;33.61;25.69;100942.63;144251;570;132008;-68
2021/07/22 23:01:14;;;;;;;;;16.50;14.75;;;;;33.61;25.40;100935.31;144224;704;131016;-68
2021/07/22 23:04:06;;;;;;;;;15.50;15.50;;;;;33.58;25.62;100939.25;144252;609;131021;-68
2021/07/22 23:06:58;;;;;;;;;19.50;13.50;;;;;33.54;25.78;100937.09;144222;618;133016;-68
2021/07/22 23:09:51;;;;;;;;;8.00;8.00;;;;;33.33;26.16;100935.16;144252;596;132008;-69
2021/07/22 23:12:43;;;;;;;;;16.25;13.75;;;;;33.29;26.55;100939.28;144238;593;131913;-68
2021/07/22 23:15:35;;;;;;;;;14.25;13.50;;;;;33.33;26.63;100935.97;144256;600;131020;-69
2021/07/22 23:18:27;;;;;;;;;10.75;10.75;;;;;33.19;26.87;100937.66;144226;577;131016;-68
2021/07/22 23:21:19;;;;;;;;;17.25;16.00;;;;;33.09;27.06;100949.81;144247;573;131021;-68
2021/07/22 23:24:11;;;;;;;;;14.50;14.50;;;;;33.08;27.88;100946.28;144229;683;131016;-67
2021/07/22 23:27:04;;;;;;;;;12.00;12.00;;;;;33.18;27.86;100944.09;144253;612;132008;-68
2021/07/22 23:29:56;;;;;;;;;20.50;18.50;;;;;33.23;27.91;100943.53;144226;592;131016;-67
2021/07/22 23:32:48;;;;;;;;;16.50;14.75;;;;;33.14;28.22;100941.97;144255;604;132008;-66
2021/07/22 23:35:40;;;;;;;;;13.75;13.75;;;;;33.10;28.26;100944.19;144219;564;132010;-66
2021/07/22 23:38:33;;;;;;;;;17.00;12.75;;;;;33.00;27.97;100941.75;144256;573;132044;-67
2021/07/22 23:41:25;;;;;;;;;15.00;12.75;;;;;33.03;28.53;100941.38;144233;565;131016;-66
2021/07/22 23:44:17;;;;;;;;;11.50;11.50;;;;;32.82;28.66;100941.25;144255;565;131021;-66
2021/07/22 23:47:09;;;;;;;;;14.00;14.00;;;;;32.81;28.93;100937.69;144223;709;132010;-66
2021/07/22 23:50:01;;;;;;;;;14.50;14.00;;;;;32.83;28.84;100940.22;144243;614;131021;-65
2021/07/22 23:52:54;;;;;;;;;16.50;15.25;;;;;32.82;28.76;100936.66;144223;606;132010;-65
2021/07/22 23:55:46;;;;;;;;;16.25;16.00;;;;;32.89;28.98;100942.22;144251;567;132013;-67
2021/07/22 23:58:38;;;;;;;;;15.75;14.75;;;;;32.81;28.90;100937.69;144228;564;131866;-67
